createdAt,value
2022-12-15T00:01:33.464Z,68.8
2022-12-15T00:04:00.201Z,60.4
2022-12-15T00:06:26.869Z,65.5
2022-12-15T00:08:53.608Z,59.8
2022-12-15T00:11:20.203Z,61.4
2022-12-15T00:13:47.208Z,63.6
2022-12-15T00:16:13.598Z,59.9
2022-12-15T00:18:40.283Z,65.9
2022-12-15T00:21:06.972Z,63.9
2022-12-15T00:23:33.743Z,61.1
2022-12-15T00:26:00.327Z,65.3
2022-12-15T00:30:52.239Z,65.3
2022-12-15T00:33:18.942Z,62.6
2022-12-15T00:35:45.616Z,66
2022-12-15T00:38:12.442Z,72.6
2022-12-15T00:40:38.976Z,72.6
2022-12-15T00:43:05.670Z,73.8
2022-12-15T00:45:32.341Z,77.2
2022-12-15T00:47:59.030Z,66.2
2022-12-15T00:50:25.726Z,62.7
2022-12-15T00:52:52.413Z,71.3
2022-12-15T00:55:19.088Z,71.7
2022-12-15T00:57:45.775Z,69.2
2022-12-15T01:00:10.995Z,74
2022-12-15T01:02:37.683Z,74.4
2022-12-15T01:05:04.369Z,77.3
2022-12-15T01:07:31.089Z,70.3
2022-12-15T01:09:57.742Z,65
2022-12-15T01:12:24.426Z,68.7
2022-12-15T01:14:51.114Z,70.5
2022-12-15T01:17:17.821Z,68.5
2022-12-15T01:19:44.507Z,70.1
2022-12-15T01:22:11.162Z,73.9
2022-12-15T01:24:37.968Z,66.1
2022-12-15T01:27:04.542Z,70.6
2022-12-15T01:29:31.237Z,68.2
2022-12-15T01:31:56.451Z,73.9
2022-12-15T01:36:49.864Z,74.6
2022-12-15T01:39:16.495Z,67.2
2022-12-15T01:41:43.242Z,67.7
2022-12-15T01:44:09.885Z,70.7
2022-12-15T01:46:36.576Z,65.7
2022-12-15T01:49:03.257Z,70
2022-12-15T01:51:29.938Z,79.7
2022-12-15T01:53:56.625Z,66.2
2022-12-15T01:56:23.310Z,66.3
2022-12-15T01:58:50.005Z,65.8
2022-12-15T02:01:16.729Z,72.3
2022-12-15T02:03:41.905Z,67.6
2022-12-15T02:06:08.612Z,69.6
2022-12-15T02:08:35.281Z,68.7
2022-12-15T02:11:01.950Z,71.6
2022-12-15T02:13:28.657Z,68.1
2022-12-15T02:15:55.333Z,67.6
2022-12-15T02:18:22.020Z,69.1
2022-12-15T02:20:48.721Z,68.9
2022-12-15T02:23:15.384Z,68.5
2022-12-15T02:25:42.072Z,67.4
2022-12-15T02:28:08.863Z,70.9
2022-12-15T02:30:35.439Z,61.9
2022-12-15T02:33:02.144Z,68.4
2022-12-15T02:35:27.359Z,66
2022-12-15T02:37:54.043Z,68.2
2022-12-15T02:40:20.716Z,65.8
2022-12-15T02:42:47.409Z,65.8
2022-12-15T02:45:14.144Z,68.5
2022-12-15T02:47:40.864Z,74.8
2022-12-15T02:50:07.467Z,70.8
2022-12-15T02:52:34.151Z,72.8
2022-12-15T02:55:00.852Z,65
2022-12-15T02:57:27.524Z,67.4
2022-12-15T02:59:54.208Z,66.9
2022-12-15T03:04:47.585Z,69.1
2022-12-15T03:07:12.816Z,69.1
2022-12-15T03:09:39.547Z,69.3
2022-12-15T03:12:06.181Z,67.5
2022-12-15T03:14:32.867Z,64
2022-12-15T03:19:26.242Z,72.9
2022-12-15T03:21:52.925Z,63.9
2022-12-15T03:24:19.601Z,71.1
2022-12-15T03:26:46.295Z,73
2022-12-15T03:29:12.990Z,64.2
2022-12-15T03:31:39.673Z,67.9
2022-12-15T03:34:06.345Z,64.1
2022-12-15T03:36:33.038Z,61.7
2022-12-15T03:38:58.265Z,68
2022-12-15T03:41:24.970Z,64.5
2022-12-15T03:43:51.636Z,67.7
2022-12-15T03:46:18.318Z,69.8
2022-12-15T03:48:44.996Z,66.4
2022-12-15T03:51:11.703Z,66.3
2022-12-15T03:53:38.380Z,66.8
2022-12-15T03:56:05.075Z,67.1
2022-12-15T03:58:31.742Z,69.6
2022-12-15T04:00:58.432Z,65.7
2022-12-15T04:03:25.133Z,72.3
2022-12-15T04:05:51.800Z,61.1
2022-12-15T04:08:18.480Z,61.3
2022-12-15T04:10:43.729Z,72
2022-12-15T04:13:10.401Z,72.4
2022-12-15T04:15:37.100Z,69.6
2022-12-15T04:18:03.764Z,64.1
2022-12-15T04:20:30.499Z,65
2022-12-15T04:22:57.146Z,66.7
2022-12-15T04:25:23.821Z,58.7
2022-12-15T04:27:50.521Z,58.7
2022-12-15T04:32:43.889Z,67.3
2022-12-15T04:35:10.565Z,72.3
2022-12-15T04:37:37.250Z,70
2022-12-15T04:40:03.926Z,64.7
2022-12-15T04:42:29.170Z,62.7
2022-12-15T04:44:55.858Z,68.4
2022-12-15T04:47:22.550Z,70.3
2022-12-15T04:49:49.232Z,75.5
2022-12-15T04:52:15.913Z,71.4
2022-12-15T04:54:41.136Z,72.4
2022-12-15T04:57:07.835Z,69.6
2022-12-15T04:59:34.540Z,58.9
2022-12-15T05:02:01.204Z,69.4
2022-12-15T05:04:27.907Z,60.4
2022-12-15T05:06:54.580Z,64.8
2022-12-15T05:09:21.264Z,66.6
2022-12-15T05:11:47.997Z,63.3
2022-12-15T05:14:14.641Z,62.4
2022-12-15T05:16:41.467Z,66.6
2022-12-15T05:19:08.054Z,61.8
2022-12-15T05:21:34.701Z,73.4
2022-12-15T05:24:01.394Z,66
2022-12-15T05:26:26.601Z,58.4
2022-12-15T05:28:53.295Z,68.8
2022-12-15T05:31:19.976Z,60.6
2022-12-15T05:33:46.682Z,63.1
2022-12-15T05:36:13.344Z,64.5
2022-12-15T05:38:40.028Z,59.3
2022-12-15T05:41:06.715Z,58.5
2022-12-15T05:43:33.407Z,59.1
2022-12-15T05:46:00.082Z,56.3
2022-12-15T05:48:26.784Z,61.8
2022-12-15T05:50:53.467Z,60.1
2022-12-15T05:53:20.189Z,62.4
2022-12-15T05:55:46.855Z,53.9
2022-12-15T05:58:12.110Z,59.1
2022-12-15T06:00:38.756Z,59
2022-12-15T06:03:05.469Z,60.7
2022-12-15T06:05:32.119Z,60.4
2022-12-15T06:07:58.795Z,64.1
2022-12-15T06:10:25.511Z,55.2
2022-12-15T06:12:52.167Z,57.1
2022-12-15T06:15:18.857Z,58.2
2022-12-15T06:17:45.547Z,68
2022-12-15T06:20:12.235Z,59.4
2022-12-15T06:22:38.907Z,68.9
2022-12-15T06:25:05.604Z,68.4
2022-12-15T06:27:32.288Z,60.3
2022-12-15T06:29:57.551Z,66.7
2022-12-15T06:32:24.210Z,65.8
2022-12-15T06:34:50.888Z,59.6
2022-12-15T06:37:17.574Z,66.2
2022-12-15T06:39:44.253Z,64.8
2022-12-15T06:42:10.939Z,65.6
2022-12-15T06:44:37.620Z,66.9
2022-12-15T06:49:31.047Z,67.8
2022-12-15T06:51:57.703Z,59.4
2022-12-15T06:54:24.466Z,60.6
2022-12-15T06:56:51.175Z,68.5
2022-12-15T06:59:17.739Z,69.4
2022-12-15T07:01:42.954Z,67.2
2022-12-15T07:04:09.717Z,67.2
2022-12-15T07:06:36.320Z,72.1
2022-12-15T07:09:03.027Z,65.6
2022-12-15T07:11:29.754Z,63.8
2022-12-15T07:13:56.443Z,62.2
2022-12-15T07:18:49.773Z,65.1
2022-12-15T07:21:16.452Z,60.7
2022-12-15T07:23:43.295Z,66.8
2022-12-15T07:28:36.514Z,55.9
2022-12-15T07:31:01.752Z,56.5
2022-12-15T07:33:26.977Z,57.8
2022-12-15T07:35:53.694Z,60
2022-12-15T07:38:20.352Z,56.8
2022-12-15T07:40:47.046Z,58.4
2022-12-15T07:43:13.746Z,62.3
2022-12-15T07:48:07.105Z,60.7
2022-12-15T07:50:33.777Z,63.4
2022-12-15T07:53:00.467Z,67.9
2022-12-15T07:55:27.186Z,68.2
2022-12-15T07:57:53.837Z,60.6
2022-12-15T08:00:20.523Z,61.4
2022-12-15T08:02:47.248Z,54.2
2022-12-15T08:05:12.425Z,58
2022-12-15T08:07:39.130Z,56.8
2022-12-15T08:10:05.857Z,62.1
2022-12-15T08:12:32.555Z,54.3
2022-12-15T08:14:59.213Z,59.3
2022-12-15T08:17:25.922Z,53.2
2022-12-15T08:19:52.549Z,54.8
2022-12-15T08:22:19.248Z,47.2
2022-12-15T08:27:11.185Z,54.8
2022-12-15T08:29:36.398Z,48.3
2022-12-15T08:32:03.147Z,57
2022-12-15T08:34:29.946Z,56.3
2022-12-15T08:36:56.454Z,57.2
2022-12-15T08:39:21.767Z,59.7
2022-12-15T08:41:46.944Z,53
2022-12-15T08:44:13.722Z,52.2
2022-12-15T08:46:40.359Z,58.6
2022-12-15T08:49:06.968Z,45.7
2022-12-15T08:51:33.664Z,51.9
2022-12-15T08:54:00.383Z,57.5
2022-12-15T08:56:27.092Z,51.6
2022-12-15T08:58:53.722Z,40
2022-12-15T09:01:20.410Z,49.3
2022-12-15T09:03:47.122Z,49.6
2022-12-15T09:06:13.806Z,55.5
2022-12-15T09:08:40.511Z,49.1
2022-12-15T09:11:07.144Z,53.7
2022-12-15T09:13:32.547Z,48.7
2022-12-15T09:15:59.056Z,52.7
2022-12-15T09:18:25.729Z,54.5
2022-12-15T09:20:52.434Z,55.1
2022-12-15T09:23:19.111Z,49.2
2022-12-15T09:25:45.795Z,55.2
2022-12-15T09:28:12.475Z,53.3
2022-12-15T09:30:39.160Z,44
2022-12-15T09:33:05.854Z,46.5
2022-12-15T09:35:32.553Z,49.3
2022-12-15T09:37:59.221Z,47.1
2022-12-15T09:40:25.907Z,43.4
2022-12-15T09:42:52.832Z,44
2022-12-15T09:45:19.287Z,52.3
2022-12-15T09:47:44.598Z,46.6
2022-12-15T09:50:11.196Z,43.7
2022-12-15T09:52:37.870Z,44.2
2022-12-15T09:55:04.552Z,49.1
2022-12-15T09:57:31.397Z,47.8
2022-12-15T09:59:58.121Z,38.4
2022-12-15T10:02:24.795Z,54.9
2022-12-15T10:04:51.493Z,45.8
2022-12-15T10:07:18.171Z,46.7
2022-12-15T10:09:44.671Z,49.4
2022-12-15T10:12:11.470Z,40.9
2022-12-15T10:14:38.218Z,43.4
2022-12-15T10:17:04.917Z,45.3
2022-12-15T10:19:30.121Z,47.5
2022-12-15T10:21:56.832Z,42.1
2022-12-15T10:24:23.459Z,46.8
2022-12-15T10:26:50.130Z,41.8
2022-12-15T10:29:16.860Z,47.5
2022-12-15T10:31:43.550Z,48.5
2022-12-15T10:34:10.299Z,40.8
2022-12-15T10:36:36.856Z,43.1
2022-12-15T10:39:03.647Z,45.5
2022-12-15T10:41:30.462Z,43.9
2022-12-15T10:43:56.978Z,40.9
2022-12-15T10:46:23.733Z,49.2
2022-12-15T10:48:50.411Z,44.8
2022-12-15T10:51:15.612Z,44.3
2022-12-15T10:53:42.085Z,41.9
2022-12-15T10:56:08.935Z,39.3
2022-12-15T10:58:35.645Z,46.2
2022-12-15T11:01:02.135Z,53.5
2022-12-15T11:03:28.828Z,47
2022-12-15T11:05:55.711Z,45.1
2022-12-15T11:08:22.403Z,46.6
2022-12-15T11:10:48.986Z,47.9
2022-12-15T11:13:15.853Z,52.6
2022-12-15T11:15:42.242Z,47.7
2022-12-15T11:18:09.100Z,49.5
2022-12-15T11:20:35.643Z,46.7
2022-12-15T11:23:01.043Z,48.3
2022-12-15T11:25:27.728Z,46.6
2022-12-15T11:27:54.415Z,44.5
2022-12-15T11:30:21.107Z,43.1
2022-12-15T11:32:47.764Z,46.1
2022-12-15T11:35:14.786Z,42.3
2022-12-15T11:37:40.956Z,46
2022-12-15T11:40:07.815Z,40.1
2022-12-15T11:42:34.339Z,46
2022-12-15T11:45:01.069Z,48.7
2022-12-15T11:47:27.898Z,41.5
2022-12-15T11:49:54.866Z,44.8
2022-12-15T11:52:21.265Z,38.7
2022-12-15T11:54:46.301Z,45.8
2022-12-15T11:57:13.186Z,39.6
2022-12-15T11:59:39.839Z,46
2022-12-15T12:02:06.598Z,38.8
2022-12-15T12:04:33.045Z,42.2
2022-12-15T12:06:59.894Z,37.1
2022-12-15T12:09:26.587Z,41.1
2022-12-15T12:11:53.207Z,44.7
2022-12-15T12:14:19.968Z,38.7
2022-12-15T12:16:46.621Z,40.4
2022-12-15T12:19:13.354Z,42.6
2022-12-15T12:21:39.970Z,42.1
2022-12-15T12:24:06.700Z,42
2022-12-15T12:26:31.942Z,40.9
2022-12-15T12:28:58.532Z,39.7
2022-12-15T12:31:25.288Z,37.1
2022-12-15T12:33:51.808Z,38.2
2022-12-15T12:36:18.484Z,36.9
2022-12-15T12:38:45.293Z,35.2
2022-12-15T12:41:12.048Z,41.3
2022-12-15T12:43:38.560Z,40
2022-12-15T12:46:05.466Z,40.1
2022-12-15T12:48:32.168Z,37.8
2022-12-15T12:50:58.785Z,37.8
2022-12-15T12:53:25.302Z,38
2022-12-15T12:55:52.179Z,39.7
2022-12-15T12:58:17.403Z,35.8
2022-12-15T13:00:44.071Z,33.2
2022-12-15T13:03:10.578Z,36.5
2022-12-15T13:05:35.973Z,38.5
2022-12-15T13:08:02.660Z,36.8
2022-12-15T13:10:29.369Z,36.8
2022-12-15T13:12:56.078Z,37.6
2022-12-15T13:15:22.729Z,37.2
2022-12-15T13:17:49.413Z,43
2022-12-15T13:20:15.984Z,36.6
2022-12-15T13:22:42.796Z,41.3
2022-12-15T13:25:09.540Z,40.4
2022-12-15T13:27:36.162Z,40.4
2022-12-15T13:30:02.859Z,40.2
2022-12-15T13:32:29.518Z,40.5
2022-12-15T13:34:56.199Z,39.9
2022-12-15T13:37:21.483Z,37
2022-12-15T13:39:48.112Z,39.2
2022-12-15T13:42:14.783Z,41.6
2022-12-15T13:44:41.545Z,41.3
2022-12-15T13:47:08.177Z,40.4
2022-12-15T13:49:34.879Z,39.9
2022-12-15T13:52:01.599Z,22
2022-12-15T13:54:28.268Z,37.9
2022-12-15T13:56:54.936Z,35.5
2022-12-15T13:59:21.655Z,34.1
2022-12-15T14:01:48.305Z,43.3
2022-12-15T14:04:14.969Z,26.5
2022-12-15T14:06:41.660Z,34.9
2022-12-15T14:09:06.893Z,43.4
2022-12-15T14:11:33.620Z,46.8
2022-12-15T14:14:00.260Z,40.4
2022-12-15T14:16:26.975Z,45.3
2022-12-15T14:18:53.615Z,42.8
2022-12-15T14:21:20.337Z,43.4
2022-12-15T14:23:46.960Z,41.7
2022-12-15T14:26:13.711Z,43.3
2022-12-15T14:28:40.445Z,43.6
2022-12-15T14:31:07.048Z,41.7
2022-12-15T14:33:33.724Z,47.4
2022-12-15T14:36:00.499Z,49.8
2022-12-15T14:38:27.135Z,42.2
2022-12-15T14:40:52.300Z,47.3
2022-12-15T14:43:18.845Z,51.5
2022-12-15T14:45:45.760Z,47.6
2022-12-15T14:48:12.356Z,39.2
2022-12-15T14:50:39.102Z,50.3
2022-12-15T14:53:05.818Z,47.1
2022-12-15T14:55:32.424Z,44.8
2022-12-15T14:57:59.190Z,47.8
2022-12-15T15:00:25.819Z,46.4
2022-12-15T15:02:52.498Z,39.3
2022-12-15T15:05:19.076Z,39.7
2022-12-15T15:07:45.722Z,37.7
2022-12-15T15:10:12.399Z,42.4
2022-12-15T15:12:39.076Z,37.1
2022-12-15T15:15:05.775Z,36.6
2022-12-15T15:17:30.998Z,46
2022-12-15T15:19:57.733Z,41
2022-12-15T15:22:24.433Z,47.6
2022-12-15T15:24:51.054Z,38.4
2022-12-15T15:27:17.738Z,46.2
2022-12-15T15:29:44.424Z,43.2
2022-12-15T15:32:11.119Z,39.2
2022-12-15T15:34:37.809Z,42.7
2022-12-15T15:37:04.481Z,41.8
2022-12-15T15:39:31.164Z,44.3
2022-12-15T15:41:57.908Z,41
2022-12-15T15:44:24.536Z,50.2
2022-12-15T15:46:51.237Z,44.2
2022-12-15T15:49:16.499Z,42.4
2022-12-15T15:51:43.136Z,46.1
2022-12-15T15:54:09.813Z,37.6
2022-12-15T15:56:36.592Z,41.1
2022-12-15T15:59:03.281Z,40.7
2022-12-15T16:01:29.872Z,34.6
2022-12-15T16:03:56.616Z,36.4
2022-12-15T16:06:23.242Z,38.2
2022-12-15T16:08:49.978Z,43.4
2022-12-15T16:11:16.685Z,35.5
2022-12-15T16:16:09.992Z,41.7
2022-12-15T16:18:36.888Z,38.1
2022-12-15T16:21:01.918Z,35.9
2022-12-15T16:23:28.585Z,34.6
2022-12-15T16:25:55.262Z,33.7
2022-12-15T16:28:22.086Z,35.7
2022-12-15T16:30:48.644Z,37.7
2022-12-15T16:33:15.329Z,37.5
2022-12-15T16:35:42.019Z,35.8
2022-12-15T16:38:08.715Z,36.8
2022-12-15T16:40:35.387Z,37.1
2022-12-15T16:43:02.073Z,37.3
2022-12-15T16:45:28.757Z,36.9
2022-12-15T16:47:55.450Z,39.6
2022-12-15T16:50:22.124Z,33.8
2022-12-15T16:52:47.392Z,37.3
2022-12-15T16:55:14.039Z,35.2
2022-12-15T16:57:40.723Z,37
2022-12-15T17:00:07.403Z,38.5
2022-12-15T17:02:34.262Z,42.3
2022-12-15T17:05:00.958Z,38.6
2022-12-15T17:07:27.530Z,40.7
2022-12-15T17:09:54.226Z,36.4
2022-12-15T17:12:20.862Z,33.8
2022-12-15T17:14:47.521Z,39.8
2022-12-15T17:17:14.279Z,38.2
2022-12-15T17:19:40.889Z,38.6
2022-12-15T17:22:07.585Z,36.3
2022-12-15T17:24:32.921Z,38.4
2022-12-15T17:26:59.489Z,41.2
2022-12-15T17:29:26.257Z,46.5
2022-12-15T17:31:52.886Z,42.1
2022-12-15T17:34:19.640Z,37.1
2022-12-15T17:36:46.217Z,36.8
2022-12-15T17:39:12.940Z,38.3
2022-12-15T17:41:39.653Z,43.5
2022-12-15T17:44:06.377Z,41.1
2022-12-15T17:46:32.975Z,35.4
2022-12-15T17:48:59.710Z,44
2022-12-15T17:51:26.364Z,45.3
2022-12-15T17:53:53.020Z,43.7
2022-12-15T17:56:18.261Z,38.9
2022-12-15T17:58:44.933Z,40
2022-12-15T18:01:11.627Z,39.9
2022-12-15T18:03:38.377Z,37.9
2022-12-15T18:06:05.010Z,39
2022-12-15T18:08:31.670Z,43.6
2022-12-15T18:10:58.360Z,41.9
2022-12-15T18:13:25.186Z,32.5
2022-12-15T18:15:51.728Z,41.8
2022-12-15T18:18:18.426Z,36.1
2022-12-15T18:20:45.107Z,43.2
2022-12-15T18:23:11.795Z,39.5
2022-12-15T18:25:38.471Z,37.7
2022-12-15T18:28:03.760Z,41
2022-12-15T18:30:30.378Z,43.8
2022-12-15T18:32:57.146Z,43.8
2022-12-15T18:35:23.767Z,37.5
2022-12-15T18:37:50.432Z,39.8
2022-12-15T18:40:17.119Z,42.6
2022-12-15T18:42:43.849Z,34.9
2022-12-15T18:45:10.600Z,39.2
2022-12-15T18:47:37.176Z,40.9
2022-12-15T18:50:04.035Z,37.3
2022-12-15T18:52:30.607Z,40.5
2022-12-15T18:54:57.401Z,38.3
2022-12-15T18:57:23.911Z,40.5
2022-12-15T18:59:49.237Z,37.1
2022-12-15T19:02:15.834Z,36.5
2022-12-15T19:04:42.525Z,35.1
2022-12-15T19:07:09.224Z,36.1
2022-12-15T19:09:35.959Z,36.8
2022-12-15T19:12:02.578Z,34.6
2022-12-15T19:14:29.311Z,42.7
2022-12-15T19:16:55.938Z,33.8
2022-12-15T19:19:22.625Z,40
2022-12-15T19:21:49.319Z,38.1
2022-12-15T19:24:16.109Z,35.3
2022-12-15T19:26:42.683Z,38
2022-12-15T19:29:09.378Z,41.8
2022-12-15T19:31:34.728Z,36.8
2022-12-15T19:34:01.295Z,37.7
2022-12-15T19:36:27.976Z,37.5
2022-12-15T19:38:54.738Z,37.3
2022-12-15T19:41:21.320Z,36.3
2022-12-15T19:43:48.013Z,39.6
2022-12-15T19:46:14.707Z,40.8
2022-12-15T19:48:41.435Z,34.4
2022-12-15T19:51:08.134Z,35.2
2022-12-15T19:53:34.940Z,43.3
2022-12-15T19:56:01.450Z,36.1
2022-12-15T19:58:28.139Z,36.3
2022-12-15T20:00:54.866Z,40.3
2022-12-15T20:03:20.109Z,38
2022-12-15T20:05:46.721Z,35.1
2022-12-15T20:08:13.469Z,37.2
2022-12-15T20:10:40.092Z,29
2022-12-15T20:13:06.920Z,33.5
2022-12-15T20:15:33.470Z,32.9
2022-12-15T20:18:00.239Z,34.7
2022-12-15T20:20:26.850Z,36.8
2022-12-15T20:22:53.555Z,33.5
2022-12-15T20:25:20.209Z,36.1
2022-12-15T20:27:46.900Z,32.3
2022-12-15T20:30:13.568Z,33.4
2022-12-15T20:32:40.302Z,35
2022-12-15T20:37:33.656Z,33.8
2022-12-15T20:39:58.891Z,35
2022-12-15T20:42:25.551Z,34.1
2022-12-15T20:44:52.341Z,33.4
2022-12-15T20:47:18.904Z,34.5
2022-12-15T20:49:45.599Z,35.5
2022-12-15T20:52:12.284Z,36.4
2022-12-15T20:54:39.028Z,29.7
2022-12-15T20:57:05.680Z,32.6
2022-12-15T20:59:32.437Z,32.2
2022-12-15T21:01:59.025Z,33.5
2022-12-15T21:04:25.910Z,36.8
2022-12-15T21:06:52.450Z,33.4
2022-12-15T21:09:19.087Z,32
2022-12-15T21:11:44.313Z,34.5
2022-12-15T21:14:10.987Z,33.3
2022-12-15T21:16:36.275Z,32.7
2022-12-15T21:19:03.061Z,33.5
2022-12-15T21:21:29.768Z,31.3
2022-12-15T21:23:56.462Z,34
2022-12-15T21:26:23.151Z,34.3
2022-12-15T21:28:49.834Z,32.3
2022-12-15T21:31:16.564Z,31.4
2022-12-15T21:33:43.217Z,32.3
2022-12-15T21:38:36.599Z,32.1
2022-12-15T21:41:03.282Z,35.4
2022-12-15T21:43:29.850Z,31.6
2022-12-15T21:45:56.489Z,32
2022-12-15T21:48:23.291Z,30.6
2022-12-15T21:50:48.546Z,26.8
2022-12-15T21:53:15.262Z,30.9
2022-12-15T21:55:41.747Z,31.8
2022-12-15T21:58:08.577Z,36
2022-12-15T22:00:35.280Z,30.2
2022-12-15T22:03:01.917Z,33.4
2022-12-15T22:05:28.648Z,30.9
2022-12-15T22:07:55.292Z,32.2
2022-12-15T22:10:22.025Z,33.6
2022-12-15T22:12:48.699Z,35.2
2022-12-15T22:15:15.362Z,34
2022-12-15T22:17:42.079Z,33.5
2022-12-15T22:20:08.731Z,31.8
2022-12-15T22:22:33.994Z,36.4
2022-12-15T22:25:00.682Z,30.9
2022-12-15T22:27:27.289Z,35.2
2022-12-15T22:29:54.070Z,33.2
2022-12-15T22:32:20.736Z,36
2022-12-15T22:34:47.507Z,36.3
2022-12-15T22:37:14.155Z,34.8
2022-12-15T22:39:40.834Z,39.6
2022-12-15T22:42:07.475Z,40.7
2022-12-15T22:44:34.175Z,39.6
2022-12-15T22:47:00.688Z,40.8
2022-12-15T22:49:27.539Z,41.3
2022-12-15T22:51:54.218Z,35.6
2022-12-15T22:54:19.273Z,49
2022-12-15T22:56:46.141Z,44
2022-12-15T22:59:12.849Z,47.7
2022-12-15T23:01:39.384Z,49.5
2022-12-15T23:04:06.226Z,47.8
2022-12-15T23:06:32.973Z,50.2
2022-12-15T23:08:59.600Z,42.1
2022-12-15T23:11:26.243Z,46.2
2022-12-15T23:13:53.025Z,42.4
2022-12-15T23:16:19.658Z,41.6
2022-12-15T23:18:46.298Z,41.3
2022-12-15T23:21:13.011Z,41.7
2022-12-15T23:23:39.681Z,44.4
2022-12-15T23:26:04.999Z,38.8
2022-12-15T23:28:31.596Z,42.6
2022-12-15T23:30:58.269Z,43.1
2022-12-15T23:33:24.901Z,45.7
2022-12-15T23:35:51.613Z,44.9
2022-12-15T23:38:18.332Z,49.2
2022-12-15T23:40:45.013Z,48.8
2022-12-15T23:43:11.681Z,48
2022-12-15T23:45:38.216Z,44.5
2022-12-15T23:48:05.058Z,46.1
2022-12-15T23:50:31.807Z,48.2
2022-12-15T23:52:58.466Z,49.5
2022-12-15T23:55:25.113Z,44.5
2022-12-15T23:57:51.805Z,49.1
